createdAt,value
2023-10-12T00:04:18.912Z,3.60
2023-10-12T00:14:18.638Z,3.20
2023-10-12T00:24:18.790Z,3.30
2023-10-12T00:34:18.451Z,3.50
2023-10-12T00:44:18.567Z,3.00
2023-10-12T00:54:18.261Z,3.00
2023-10-12T01:04:18.182Z,3.10
2023-10-12T01:14:18.229Z,3.00
2023-10-12T01:24:18.846Z,2.80
2023-10-12T01:34:18.577Z,4.10
2023-10-12T01:44:22.607Z,2.70
2023-10-12T01:54:17.704Z,3.10
2023-10-12T02:04:19.149Z,3.20
2023-10-12T02:14:17.540Z,3.00
2023-10-12T02:24:17.252Z,3.00
2023-10-12T02:34:17.161Z,3.00
2023-10-12T02:44:17.113Z,2.70
2023-10-12T02:54:22.833Z,3.10
2023-10-12T03:04:23.050Z,3.00
2023-10-12T03:14:24.756Z,3.30
2023-10-12T03:24:25.638Z,3.30
2023-10-12T03:34:16.667Z,3.40
2023-10-12T03:44:16.499Z,3.00
2023-10-12T03:54:16.265Z,3.30
2023-10-12T04:04:16.263Z,4.00
2023-10-12T04:14:16.141Z,4.60
2023-10-12T04:24:19.574Z,4.80
2023-10-12T04:34:15.894Z,5.50
2023-10-12T04:44:15.724Z,5.10
2023-10-12T04:54:15.784Z,5.40
2023-10-12T05:04:22.410Z,4.50
2023-10-12T05:14:15.388Z,4.90
2023-10-12T05:24:15.376Z,4.80
2023-10-12T05:34:15.142Z,5.20
2023-10-12T05:44:15.053Z,4.60
2023-10-12T05:54:14.963Z,5.00
2023-10-12T06:04:14.952Z,5.50
2023-10-12T06:14:14.745Z,6.30
2023-10-12T06:24:14.615Z,6.40
2023-10-12T06:34:14.607Z,6.80
2023-10-12T06:44:14.443Z,6.60
2023-10-12T06:54:14.309Z,7.30
2023-10-12T07:04:14.693Z,8.40
2023-10-12T07:14:14.167Z,8.20
2023-10-12T07:24:14.014Z,8.80
2023-10-12T07:34:13.949Z,8.50
2023-10-12T07:44:13.801Z,7.40
2023-10-12T07:54:13.700Z,6.90
2023-10-12T08:04:13.714Z,6.10
2023-10-12T08:14:13.493Z,6.50
2023-10-12T08:24:13.382Z,1.60
2023-10-12T08:34:13.299Z,1.50
2023-10-12T08:44:19.408Z,2.00
2023-10-12T08:54:13.066Z,2.00
2023-10-12T09:04:13.193Z,1.40
2023-10-12T09:14:13.154Z,1.70
2023-10-12T09:24:12.744Z,1.40
2023-10-12T09:34:12.926Z,1.70
2023-10-12T09:44:12.566Z,1.60
2023-10-12T09:54:12.440Z,1.70
2023-10-12T10:04:12.335Z,1.60
2023-10-12T10:14:12.227Z,1.40
2023-10-12T10:24:12.121Z,1.70
2023-10-12T10:34:12.057Z,1.50
2023-10-12T10:44:11.913Z,1.50
2023-10-12T10:54:12.751Z,1.50
2023-10-12T11:04:17.850Z,1.40
2023-10-12T11:14:17.830Z,1.70
2023-10-12T11:24:11.515Z,2.20
2023-10-12T11:34:11.398Z,1.50
2023-10-12T11:44:11.303Z,1.60
2023-10-12T11:54:11.202Z,1.40
2023-10-12T12:04:11.172Z,1.50
2023-10-12T12:14:11.027Z,1.70
2023-10-12T12:24:10.914Z,2.10
2023-10-12T12:34:10.892Z,1.60
2023-10-12T12:44:10.674Z,1.30
2023-10-12T12:54:10.570Z,1.60
2023-10-12T13:04:10.541Z,2.00
2023-10-12T13:14:10.416Z,1.50
2023-10-12T13:24:10.261Z,1.50
2023-10-12T13:34:10.193Z,1.50
2023-10-12T13:44:10.046Z,1.80
2023-10-12T13:54:16.410Z,1.50
2023-10-12T14:04:09.927Z,1.40
2023-10-12T14:14:10.625Z,1.50
2023-10-12T14:24:09.668Z,1.60
2023-10-12T14:34:09.583Z,1.40
2023-10-12T14:44:09.435Z,1.40
2023-10-12T14:54:09.316Z,1.80
2023-10-12T15:04:09.543Z,1.80
2023-10-12T15:14:15.106Z,1.50
2023-10-12T15:24:15.004Z,1.60
2023-10-12T15:34:16.934Z,1.70
2023-10-12T15:44:08.803Z,2.20
2023-10-12T15:54:08.945Z,2.00
2023-10-12T16:04:08.709Z,1.70
2023-10-12T16:14:58.483Z,1.80
2023-10-12T16:25:05.422Z,2.30
2023-10-12T16:34:59.288Z,1.90
2023-10-12T16:44:59.177Z,2.30
2023-10-12T16:54:59.178Z,1.70
2023-10-12T17:05:06.717Z,2.20
2023-10-12T17:14:58.937Z,2.50
2023-10-12T17:24:58.840Z,2.50
2023-10-12T17:34:58.693Z,2.40
2023-10-12T17:44:58.572Z,2.40
2023-10-12T17:54:58.500Z,2.30
2023-10-12T18:04:58.375Z,2.60
2023-10-12T18:14:58.284Z,2.20
2023-10-12T18:24:58.135Z,2.30
2023-10-12T18:34:57.990Z,2.10
2023-10-12T18:44:58.039Z,2.20
2023-10-12T18:54:57.831Z,2.30
2023-10-12T19:04:57.940Z,2.40
2023-10-12T19:14:57.829Z,2.40
2023-10-12T19:24:57.737Z,2.50
2023-10-12T19:34:57.394Z,2.50
2023-10-12T19:44:57.264Z,2.60
2023-10-12T19:54:57.246Z,2.90
2023-10-12T20:04:57.807Z,2.60
2023-10-12T20:14:57.648Z,3.10
2023-10-12T20:24:56.804Z,3.00
2023-10-12T20:34:56.719Z,3.00
2023-10-12T20:44:56.586Z,2.80
2023-10-12T20:54:56.650Z,3.00
2023-10-12T21:04:56.410Z,2.90
2023-10-12T21:14:57.365Z,2.70
2023-10-12T21:24:56.503Z,2.60
2023-10-12T21:34:56.157Z,2.80
2023-10-12T21:44:55.967Z,2.50
2023-10-12T21:54:55.828Z,2.70
2023-10-12T22:04:55.778Z,3.20
2023-10-12T22:14:55.612Z,3.00
2023-10-12T22:24:55.557Z,3.50
2023-10-12T22:34:55.379Z,3.80
2023-10-12T22:44:55.277Z,3.30
2023-10-12T22:54:55.167Z,3.40
2023-10-12T23:04:55.070Z,3.20
2023-10-12T23:14:54.957Z,3.60
2023-10-12T23:24:54.853Z,4.00
2023-10-12T23:34:54.747Z,3.70
2023-10-12T23:44:54.621Z,2.90
2023-10-12T23:54:54.549Z,3.60
